Flight Track Log - Related Links

Times and Time Zones

All times are in EDT time to prevent confusion due to time zone crossing. See the UAL582 flight status page for this flight to view local times or setup timezone preferences in your user account.

Time Position Orientation Groundspeed Altitude Reporting Facility
EDT Latitude Longitude Course Direction KTS MPH feet Rate Location/Type
Sun 05:25:18 PM 43.6333 -79.6333 278° West 180 207 2,400  Level Toronto Center
Sun 05:26:18 PM 43.5833 -79.7000 224° Southwest 230 265 5,100 2,350 Climbing Toronto Center
Sun 05:27:00 PM 43.6897 -80.1047 283° West  Level FlightAware Approximate
Sun 05:27:18 PM 43.5667 -79.7667 251° West 230 265 7,100  Level Toronto Center
Sun 05:28:00 PM 43.7011 -80.2274 278° West  Level FlightAware Approximate
Sun 05:28:18 PM 43.5833 -79.8667 283° West 240 276 7,100  Level Toronto Center
Sun 05:29:00 PM 43.7134 -80.3507 278° West  Level FlightAware Approximate
Sun 05:29:18 PM 43.6167 -79.9500 299° West 240 276 7,500  Level Toronto Center
Sun 05:30:00 PM 43.7258 -80.4740 278° West  Level FlightAware Approximate
Sun 05:31:18 PM 43.6500 -80.1333 284° West 270 311 12,300  Level Toronto Center
Sun 05:32:18 PM 43.6833 -80.2500 292° West 320 368 15,500 2,550 Climbing Toronto Center
Sun 05:33:18 PM 43.7000 -80.3667 281° West 320 368 17,400 1,950 Climbing Toronto Center
Sun 05:34:18 PM 43.7333 -80.5167 287° West 340 391 19,400 1,950 Climbing Toronto Center
Sun 05:35:18 PM 43.7167 -80.6500 260° West 370 426 21,300 1,800 Climbing Toronto Center
Sun 05:36:18 PM 43.6833 -80.7833 251° West 390 449 23,000 1,700 Climbing Toronto Center
Sun 05:37:18 PM 43.6500 -80.9167 251° West 390 449 24,700 1,650 Climbing Toronto Center
Sun 05:38:18 PM 43.6167 -81.0833 255° West 400 460 26,300 1,500 Climbing Toronto Center
Sun 05:39:18 PM 43.5833 -81.2167 251° West 400 460 27,700 850 Climbing Toronto Center
Sun 05:40:18 PM 43.5500 -81.3667 253° West 370 426 28,000 150 Climbing Toronto Center
Sun 05:41:18 PM 43.5333 -81.5000 260° West 370 426 28,000  Level Toronto Center
Sun 05:42:18 PM 43.5000 -81.6333 251° West 370 426 28,000  Level Toronto Center
Sun 05:43:18 PM 43.4667 -81.7667 251° West 370 426 28,000  Level Toronto Center
Sun 05:44:18 PM 43.4333 -81.9000 251° West 370 426 28,000  Level Toronto Center
Sun 05:45:18 PM 43.4000 -82.0500 253° West 370 426 28,000  Level Toronto Center
Sun 05:46:11 PM 43.3894 -82.1572 262° West 379 436 28,000  Level Cleveland Center
Sun 05:47:11 PM 43.3561 -82.2878 251° West 379 436 28,000  Level Cleveland Center
Sun 05:48:11 PM 43.3250 -82.4267 253° West 379 436 28,000  Level Cleveland Center
Sun 05:49:11 PM 43.2936 -82.5597 252° West 379 436 28,000  Level Cleveland Center
Sun 05:50:11 PM 43.2578 -82.6956 250° West 379 436 28,000  Level Cleveland Center
Sun 05:51:11 PM 43.2239 -82.8367 252° West 379 436 28,000  Level Cleveland Center
Sun 05:52:11 PM 43.1817 -82.9719 247° West 385 443 28,000  Level Cleveland Center
Sun 05:53:11 PM 43.1450 -83.1214 251° West 398 458 28,000  Level Cleveland Center
Sun 05:54:11 PM 43.0975 -83.2844 248° West 413 475 28,000  Level Cleveland Center
Sun 05:55:11 PM 43.0544 -83.4303 248° West 418 481 28,000  Level Cleveland Center
Sun 05:56:11 PM 43.0133 -83.5761 249° West 418 481 28,000  Level Cleveland Center
Sun 05:57:11 PM 42.9761 -83.7189 250° West 418 481 28,000  Level Cleveland Center
Sun 05:58:11 PM 42.9531 -83.8767 259° West 418 481 28,000  Level Cleveland Center
Sun 06:00:11 PM 42.9228 -84.1869 263° West 413 475 28,000  Level Cleveland Center
Sun 06:01:11 PM 42.9106 -84.3083 262° West 413 475 28,000  Level Cleveland Center
Sun 06:01:35 PM 42.9039 -84.3803 263° West 414 476 28,000  Level Chicago Center
Sun 06:02:37 PM 42.8892 -84.5358 263° West 416 479 28,000  Level Chicago Center
Sun 06:03:39 PM 42.8697 -84.7239 262° West 417 480 28,000  Level Chicago Center
Sun 06:04:41 PM 42.8539 -84.8792 262° West 415 478 28,000  Level Chicago Center
Sun 06:05:42 PM 42.8372 -85.0369 262° West 420 483 28,000 -146 Level Chicago Center
Sun 06:06:44 PM 42.8206 -85.1933 262° West 420 483 27,700 -484 Descending Chicago Center
Sun 06:07:46 PM 42.8031 -85.3500 261° West 418 481 27,000 -774 Descending Chicago Center
Sun 06:08:48 PM 42.7853 -85.5053 261° West 415 478 26,100 -484 Descending Chicago Center
Sun 06:09:50 PM 42.7578 -85.6603 256° West 417 480 26,000 -97 Descending Chicago Center
Sun 06:10:52 PM 42.7297 -85.8139 256° West 417 480 25,900 -1,113 Descending Chicago Center
Sun 06:11:54 PM 42.6969 -85.9944 256° West 409 471 23,700 -2,226 Descending Chicago Center
Sun 06:12:56 PM 42.6708 -86.1364 256° West 394 453 21,300 -1,887 Descending Chicago Center
Sun 06:13:58 PM 42.6456 -86.2733 256° West 379 436 19,800 -968 Descending Chicago Center
Sun 06:15:00 PM 42.6200 -86.4081 256° West 371 427 19,300 -484 Descending Chicago Center
Sun 06:16:02 PM 42.5950 -86.5414 256° West 364 419 18,800 -484 Descending Chicago Center
Sun 06:17:04 PM 42.5678 -86.6864 256° West 365 420 18,300 -1,016 Descending Chicago Center
Sun 06:18:06 PM 42.5378 -86.8131 252° West 358 412 16,700 -1,984 Descending Chicago Center
Sun 06:19:08 PM 42.5008 -86.9503 250° West 347 399 14,200 -2,177 Descending Chicago Center
Sun 06:20:10 PM 42.4686 -87.0625 249° West 323 372 12,200 -1,452 Descending Chicago Center
Sun 06:21:12 PM 42.4414 -87.1603 249° West 282 325 11,200 -1,452 Descending Chicago Center
Sun 06:22:14 PM 42.4139 -87.2492 247° West 260 299 9,200 -1,065 Descending Chicago Center
Sun 06:23:16 PM 42.3744 -87.3317 237° Southwest 263 303 9,000 -97 Descending Chicago Center
Sun 06:24:18 PM 42.3375 -87.4178 240° Southwest 256 295 9,000 -48 Level Chicago Center
Sun 06:25:20 PM 42.2933 -87.5139 238° Southwest 254 292 8,900 -871 Descending Chicago Center
Sun 06:26:22 PM 42.2592 -87.5961 241° Southwest 253 291 7,200 -1,548 Descending Chicago Center
Sun 06:27:24 PM 42.2117 -87.6614 226° Southwest 246 283 5,700 -1,344 Descending Chicago Center
Sun 06:28:27 PM 42.1625 -87.7136 218° Southwest 229 264 4,400 -964 Descending Chicago Center
Sun 06:29:16 PM 42.1167 -87.7500 210° Southwest 189 217 3,900 -716 Descending Chicago TRACON
Sun 06:30:16 PM 42.0833 -87.8000 228° Southwest 172 198 3,100 -897 Descending Chicago TRACON
Sun 06:32:10 PM 42.0167 -87.8667 217° Southwest 143 165 1,300 -947 Descending Chicago TRACON

Login

Don't have an account? Register now (free) for customized features, flight alerts, and more!